Time;durP1;ratioP1;P1;durP2;ratioP2;P2;SDS_P1;SDS_P2;PMS_P1;PMS_P2;Temp;Humidity;BMP_temperature;BMP_pressure;BME280_temperature;BME280_humidity;BME280_pressure;Samples;Min_cycle;Max_cycle;Signal;HPM_P1;HPM_P2
2024/02/25 00:01:17;;;;;;;1.85;0.85;;;5.00;99.90;;;;;;5011142;28;20095;-77
2024/02/25 00:03:43;;;;;;;3.15;0.93;;;5.10;99.90;;;;;;5011890;28;20033;-77
2024/02/25 00:06:09;;;;;;;3.95;1.52;;;5.10;99.90;;;;;;5011551;28;20035;-77
2024/02/25 00:08:35;;;;;;;2.22;1.08;;;5.10;99.90;;;;;;5013078;28;20056;-78
2024/02/25 00:11:01;;;;;;;2.63;0.80;;;5.10;99.90;;;;;;5013862;28;20140;-77
2024/02/25 00:13:27;;;;;;;3.85;1.10;;;5.00;99.90;;;;;;5013649;28;20037;-77
2024/02/25 00:15:53;;;;;;;2.80;1.30;;;5.10;99.90;;;;;;5013164;28;21301;-77
2024/02/25 00:18:18;;;;;;;4.05;2.00;;;5.10;99.90;;;;;;5014078;28;20037;-77
2024/02/25 00:20:44;;;;;;;2.78;1.75;;;5.10;99.90;;;;;;5014971;28;20634;-77
2024/02/25 00:23:10;;;;;;;3.78;1.67;;;5.20;99.90;;;;;;5016523;28;20048;-77
2024/02/25 00:25:36;;;;;;;4.22;2.08;;;5.20;99.90;;;;;;4999279;28;20041;-77
2024/02/25 00:28:02;;;;;;;3.10;1.80;;;5.20;99.90;;;;;;5015011;28;20034;-77
2024/02/25 00:30:28;;;;;;;3.03;1.83;;;5.10;99.90;;;;;;5016245;28;20408;-77
2024/02/25 00:32:54;;;;;;;3.92;2.45;;;5.00;99.90;;;;;;5014388;28;20052;-78
2024/02/25 00:35:19;;;;;;;5.55;2.42;;;5.00;99.90;;;;;;5014121;28;20033;-76
2024/02/25 00:37:48;;;;;;;4.78;2.30;;;5.30;99.90;;;;;;5013828;28;20973;-79
2024/02/25 00:40:15;;;;;;;3.95;1.95;;;5.70;99.90;;;;;;5013118;28;20041;-78
2024/02/25 00:42:41;;;;;;;3.75;1.90;;;5.60;99.90;;;;;;5012724;28;20037;-76
2024/02/25 00:45:08;;;;;;;4.13;2.35;;;5.40;99.90;;;;;;5013574;28;20048;-78
2024/02/25 00:47:34;;;;;;;5.97;2.25;;;5.20;99.90;;;;;;5012202;28;20484;-77
2024/02/25 00:50:00;;;;;;;6.85;2.92;;;5.00;99.90;;;;;;5011482;28;20064;-77
2024/02/25 00:52:27;;;;;;;4.47;2.55;;;5.10;99.90;;;;;;5011647;28;20083;-77
2024/02/25 00:54:52;;;;;;;4.07;2.30;;;5.00;99.90;;;;;;5009962;28;20052;-77
2024/02/25 00:57:18;;;;;;;6.70;2.92;;;5.00;99.90;;;;;;5010474;28;20029;-77
2024/02/25 00:59:44;;;;;;;4.03;2.00;;;4.90;99.90;;;;;;5003529;28;20429;-77
2024/02/25 01:02:10;;;;;;;3.92;2.13;;;5.00;99.90;;;;;;5011792;28;20129;-77
2024/02/25 01:04:36;;;;;;;3.83;2.10;;;5.10;99.90;;;;;;5007053;28;20043;-77
2024/02/25 01:07:01;;;;;;;4.63;2.10;;;5.00;99.90;;;;;;5009534;28;20037;-76
2024/02/25 01:09:27;;;;;;;5.20;2.28;;;5.00;99.90;;;;;;5012707;28;20045;-77
2024/02/25 01:11:53;;;;;;;4.72;2.42;;;5.00;99.90;;;;;;5014776;28;20033;-76
2024/02/25 01:14:20;;;;;;;5.03;2.42;;;5.00;99.90;;;;;;5012639;28;20033;-77
2024/02/25 01:16:47;;;;;;;7.40;2.50;;;4.90;99.90;;;;;;5012174;28;20075;-77
2024/02/25 01:19:13;;;;;;;4.10;2.40;;;4.90;99.90;;;;;;5013650;28;20033;-77
2024/02/25 01:21:39;;;;;;;3.45;2.35;;;5.00;99.90;;;;;;5013409;28;20030;-77
2024/02/25 01:24:05;;;;;;;4.07;2.60;;;5.00;99.90;;;;;;5013273;28;20053;-77
2024/02/25 01:26:31;;;;;;;3.95;2.28;;;5.00;99.90;;;;;;5014293;28;20017;-77
2024/02/25 01:28:58;;;;;;;7.60;2.50;;;5.00;99.90;;;;;;5013394;28;20068;-77
2024/02/25 01:31:24;;;;;;;4.30;2.70;;;5.00;99.90;;;;;;5013964;28;20041;-77
2024/02/25 01:33:49;;;;;;;5.13;2.45;;;5.00;99.90;;;;;;5014325;28;20025;-77
2024/02/25 01:36:15;;;;;;;7.50;2.78;;;5.00;99.90;;;;;;5014042;28;20034;-77
2024/02/25 01:38:41;;;;;;;4.38;2.55;;;5.00;99.90;;;;;;5012871;28;20037;-77
2024/02/25 01:41:07;;;;;;;4.78;2.83;;;5.00;99.90;;;;;;5015587;28;20018;-77
2024/02/25 01:43:39;;;;;;;5.18;2.83;;;5.00;99.90;;;;;;5013039;28;20033;-77
2024/02/25 01:46:06;;;;;;;5.68;3.05;;;4.90;99.90;;;;;;5013466;28;20392;-77
2024/02/25 01:48:32;;;;;;;4.97;2.63;;;4.80;99.90;;;;;;5013289;28;20495;-77
2024/02/25 01:50:58;;;;;;;5.90;3.58;;;4.80;99.90;;;;;;5014098;28;20045;-77
2024/02/25 01:53:25;;;;;;;5.25;3.10;;;4.90;99.90;;;;;;5011522;28;20048;-76
2024/02/25 01:55:52;;;;;;;4.35;2.47;;;5.00;99.90;;;;;;5014083;28;20492;-77
2024/02/25 01:58:18;;;;;;;6.18;2.50;;;5.00;99.90;;;;;;5014393;28;20384;-77
2024/02/25 02:00:45;;;;;;;7.68;2.97;;;4.90;99.90;;;;;;5012773;28;20087;-77
2024/02/25 02:03:10;;;;;;;4.65;2.78;;;4.80;99.90;;;;;;5012496;28;20045;-77
2024/02/25 02:05:37;;;;;;;4.55;2.70;;;4.80;99.90;;;;;;5013337;28;20049;-77
2024/02/25 02:08:03;;;;;;;4.78;2.42;;;4.90;99.90;;;;;;5011517;28;20538;-77
2024/02/25 02:10:29;;;;;;;6.40;3.60;;;4.90;99.90;;;;;;5014170;28;20052;-77
2024/02/25 02:12:55;;;;;;;7.80;3.47;;;4.90;99.90;;;;;;5013324;28;20041;-77
2024/02/25 02:15:21;;;;;;;6.28;3.05;;;4.80;99.90;;;;;;5012542;28;20044;-77
2024/02/25 02:17:48;;;;;;;5.05;3.25;;;4.90;99.90;;;;;;5012604;28;20029;-77
2024/02/25 02:20:23;;;;;;;5.72;3.30;;;5.00;99.90;;;;;;5012828;28;20450;-77
2024/02/25 02:22:51;;;;;;;5.88;3.58;;;4.90;99.90;;;;;;5010635;28;20095;-77
2024/02/25 02:25:17;;;;;;;7.15;4.38;;;4.90;99.90;;;;;;5011731;28;20036;-77
2024/02/25 02:27:44;;;;;;;10.55;6.35;;;4.90;99.90;;;;;;5013857;28;20034;-77
2024/02/25 02:30:10;;;;;;;8.45;5.70;;;5.00;99.90;;;;;;5012867;28;20052;-77
2024/02/25 02:32:37;;;;;;;7.97;5.93;;;4.90;99.90;;;;;;5015989;28;20514;-77
2024/02/25 02:35:05;;;;;;;9.70;5.95;;;4.90;99.90;;;;;;5017455;28;20033;-77
2024/02/25 02:37:31;;;;;;;8.40;5.75;;;4.90;99.90;;;;;;5016311;28;20138;-77
2024/02/25 02:39:57;;;;;;;8.65;5.97;;;4.90;99.90;;;;;;5017079;28;20060;-77
2024/02/25 02:42:23;;;;;;;8.88;6.20;;;4.90;99.90;;;;;;5017270;28;20116;-77
2024/02/25 02:44:50;;;;;;;8.25;5.53;;;4.90;99.90;;;;;;5016227;28;20151;-77
2024/02/25 02:47:17;;;;;;;7.80;5.45;;;4.90;99.90;;;;;;5016057;28;20026;-77
2024/02/25 02:49:44;;;;;;;9.25;6.25;;;4.80;99.90;;;;;;5017385;28;20403;-77
2024/02/25 02:52:10;;;;;;;7.47;4.78;;;4.80;99.90;;;;;;5016800;28;20044;-78
2024/02/25 02:54:39;;;;;;;7.80;5.40;;;4.80;99.90;;;;;;5015987;28;20131;-77
2024/02/25 02:57:04;;;;;;;6.68;4.70;;;4.80;99.90;;;;;;5017571;28;20068;-77
2024/02/25 02:59:32;;;;;;;8.90;6.10;;;4.80;99.90;;;;;;5015838;28;20737;-77
2024/02/25 03:01:58;;;;;;;7.00;5.57;;;4.80;99.90;;;;;;5015865;28;20057;-77
2024/02/25 03:04:24;;;;;;;7.75;5.35;;;4.70;99.90;;;;;;5016573;28;20026;-77
2024/02/25 03:06:51;;;;;;;8.60;5.63;;;4.80;99.90;;;;;;5015592;28;20515;-77
2024/02/25 03:09:16;;;;;;;10.00;6.90;;;4.80;99.90;;;;;;5014687;28;20554;-77
2024/02/25 03:11:42;;;;;;;10.05;6.00;;;4.80;99.90;;;;;;5016543;28;20048;-77
2024/02/25 03:14:08;;;;;;;6.85;4.72;;;4.70;99.90;;;;;;5015777;28;20045;-77
2024/02/25 03:16:33;;;;;;;7.10;5.10;;;4.70;99.90;;;;;;5016147;28;20033;-77
2024/02/25 03:18:59;;;;;;;7.13;5.28;;;4.80;99.90;;;;;;5017381;28;20063;-77
2024/02/25 03:21:25;;;;;;;6.20;4.35;;;4.80;99.90;;;;;;5016955;28;20033;-77
2024/02/25 03:23:50;;;;;;;6.50;4.00;;;4.80;99.90;;;;;;5015971;28;20067;-77
2024/02/25 03:26:17;;;;;;;6.20;4.28;;;4.80;99.90;;;;;;5016339;28;20045;-77
2024/02/25 03:28:43;;;;;;;6.82;4.20;;;4.90;99.90;;;;;;5016505;28;20030;-77
2024/02/25 03:31:09;;;;;;;9.60;5.47;;;4.80;99.90;;;;;;5016072;28;20042;-77
2024/02/25 03:33:35;;;;;;;9.75;5.10;;;4.70;99.90;;;;;;5016906;28;20033;-77
2024/02/25 03:36:01;;;;;;;6.97;4.70;;;4.70;99.90;;;;;;5015499;28;20454;-77
2024/02/25 03:38:27;;;;;;;7.25;4.97;;;4.70;99.90;;;;;;5015099;28;20033;-77
2024/02/25 03:40:52;;;;;;;8.63;5.10;;;4.70;99.90;;;;;;5015648;28;20095;-77
2024/02/25 03:43:18;;;;;;;8.90;5.18;;;4.80;99.90;;;;;;5015089;28;20033;-77
2024/02/25 03:45:44;;;;;;;7.78;5.25;;;4.80;99.90;;;;;;5013852;28;20666;-77
2024/02/25 03:48:10;;;;;;;8.52;5.88;;;4.90;99.90;;;;;;5017036;28;20215;-77
2024/02/25 03:50:36;;;;;;;9.35;6.20;;;5.00;99.90;;;;;;5016804;28;20052;-77
2024/02/25 03:53:02;;;;;;;8.45;5.75;;;4.90;99.90;;;;;;5014662;28;20029;-77
2024/02/25 03:55:28;;;;;;;8.23;5.47;;;4.90;99.90;;;;;;5016940;28;22092;-77
2024/02/25 03:57:55;;;;;;;9.52;6.60;;;4.90;99.90;;;;;;5015278;28;20040;-77
2024/02/25 04:00:21;;;;;;;9.70;6.47;;;4.80;99.90;;;;;;5013648;28;20345;-78
2024/02/25 04:02:47;;;;;;;9.40;6.90;;;4.90;99.90;;;;;;5012784;28;20640;-78
2024/02/25 04:05:14;;;;;;;10.10;6.32;;;4.90;99.90;;;;;;5010726;28;20037;-78
2024/02/25 04:07:42;;;;;;;8.88;6.30;;;4.80;99.90;;;;;;5009379;28;20033;-78
2024/02/25 04:10:08;;;;;;;9.93;7.18;;;4.80;99.90;;;;;;5009127;28;20231;-78
2024/02/25 04:12:34;;;;;;;9.85;7.13;;;4.70;99.90;;;;;;5011432;28;20438;-78
2024/02/25 04:15:00;;;;;;;9.85;6.80;;;4.70;99.90;;;;;;5009704;28;20046;-78
2024/02/25 04:17:26;;;;;;;9.15;5.88;;;4.80;99.90;;;;;;5008449;28;20117;-78
2024/02/25 04:19:53;;;;;;;9.40;6.57;;;4.70;99.90;;;;;;5008557;28;20029;-78
2024/02/25 04:22:18;;;;;;;9.05;5.82;;;4.80;99.90;;;;;;5007556;28;20037;-78
2024/02/25 04:24:44;;;;;;;7.60;5.07;;;4.80;99.90;;;;;;5010035;28;20045;-78
2024/02/25 04:27:10;;;;;;;7.65;5.40;;;4.80;99.90;;;;;;5010169;28;20517;-78
2024/02/25 04:29:39;;;;;;;8.32;5.47;;;4.90;99.90;;;;;;5009715;28;20049;-78
2024/02/25 04:32:05;;;;;;;8.77;5.85;;;5.00;99.90;;;;;;5007964;28;20111;-78
2024/02/25 04:34:32;;;;;;;8.40;5.53;;;4.90;99.90;;;;;;5008911;28;20048;-78
2024/02/25 04:36:58;;;;;;;11.82;7.15;;;5.00;99.90;;;;;;5009852;28;20036;-78
2024/02/25 04:39:24;;;;;;;11.10;6.93;;;4.90;99.90;;;;;;5007559;28;20095;-78
2024/02/25 04:41:50;;;;;;;33.72;8.68;;;4.90;99.90;;;;;;5008744;28;20037;-78
2024/02/25 04:44:16;;;;;;;11.70;7.70;;;4.80;99.90;;;;;;5008906;28;20025;-78
2024/02/25 04:46:41;;;;;;;10.27;7.93;;;4.70;99.90;;;;;;5011768;28;20038;-78
2024/02/25 04:49:08;;;;;;;10.38;6.75;;;4.80;99.90;;;;;;5009413;28;22878;-78
2024/02/25 04:51:34;;;;;;;12.75;7.25;;;4.80;99.90;;;;;;5006469;28;20041;-78
2024/02/25 04:54:00;;;;;;;17.67;8.13;;;4.80;99.90;;;;;;5007771;28;20041;-78
2024/02/25 04:56:27;;;;;;;20.92;8.10;;;4.70;99.90;;;;;;5009237;28;20065;-78
2024/02/25 04:58:53;;;;;;;10.88;7.78;;;4.60;99.90;;;;;;5007967;28;20644;-78
2024/02/25 05:01:19;;;;;;;10.32;7.55;;;4.70;99.90;;;;;;5008248;28;20465;-78
2024/02/25 05:03:45;;;;;;;11.05;7.28;;;4.70;99.90;;;;;;5006760;28;20044;-78
2024/02/25 05:06:11;;;;;;;9.95;7.70;;;4.70;99.90;;;;;;5006431;28;20061;-78
2024/02/25 05:08:36;;;;;;;12.25;8.30;;;4.60;99.90;;;;;;5008573;28;20037;-78
2024/02/25 05:11:02;;;;;;;11.18;8.07;;;4.60;99.90;;;;;;5007602;28;20662;-78
2024/02/25 05:13:28;;;;;;;11.38;8.18;;;4.50;99.90;;;;;;5008228;28;20076;-78
2024/02/25 05:15:54;;;;;;;10.40;7.07;;;4.50;99.90;;;;;;5006664;28;20455;-78
2024/02/25 05:18:20;;;;;;;9.38;5.22;;;4.50;99.90;;;;;;5007150;28;20064;-78
2024/02/25 05:20:45;;;;;;;8.00;5.68;;;4.60;99.90;;;;;;5007855;28;20116;-77
2024/02/25 05:23:11;;;;;;;11.45;6.68;;;4.60;99.90;;;;;;5006404;28;20548;-78
2024/02/25 05:25:37;;;;;;;6.95;4.75;;;4.50;99.90;;;;;;5006402;28;20029;-78
2024/02/25 05:28:03;;;;;;;9.07;6.30;;;4.60;99.90;;;;;;5007073;28;20036;-78
2024/02/25 05:30:29;;;;;;;9.68;6.25;;;4.60;99.90;;;;;;5005984;28;20045;-78
2024/02/25 05:32:55;;;;;;;8.23;5.95;;;4.50;99.90;;;;;;5007922;28;20045;-77
2024/02/25 05:35:21;;;;;;;8.93;5.78;;;4.50;99.90;;;;;;5006394;28;20033;-77
2024/02/25 05:37:47;;;;;;;7.55;4.90;;;4.50;99.90;;;;;;5006823;28;20041;-78
2024/02/25 05:40:13;;;;;;;9.05;5.93;;;4.50;99.90;;;;;;5007632;28;20076;-77
2024/02/25 05:42:39;;;;;;;7.43;4.90;;;4.50;99.90;;;;;;5006596;28;20041;-76
2024/02/25 05:45:05;;;;;;;9.20;5.07;;;4.50;99.90;;;;;;5006141;28;20038;-78
2024/02/25 05:47:31;;;;;;;8.45;5.32;;;4.50;99.90;;;;;;5005078;28;21189;-78
2024/02/25 05:49:58;;;;;;;7.25;4.90;;;4.40;99.90;;;;;;5006863;28;20045;-77
2024/02/25 05:52:23;;;;;;;8.15;4.70;;;4.30;99.90;;;;;;5008250;28;20846;-78
2024/02/25 05:54:49;;;;;;;7.68;4.95;;;4.30;99.90;;;;;;5006345;28;20096;-78
2024/02/25 05:57:15;;;;;;;8.02;5.05;;;4.30;99.90;;;;;;5005910;28;20429;-78
2024/02/25 05:59:41;;;;;;;10.73;5.57;;;4.30;99.90;;;;;;5008053;28;20014;-78
2024/02/25 06:02:06;;;;;;;8.13;5.15;;;4.30;99.90;;;;;;5005184;28;20119;-78
2024/02/25 06:04:36;;;;;;;7.57;5.40;;;4.40;99.90;;;;;;5004493;28;20040;-78
2024/02/25 06:07:03;;;;;;;7.50;5.40;;;4.40;99.90;;;;;;5007286;28;20039;-78
2024/02/25 06:09:29;;;;;;;8.13;4.82;;;4.30;99.90;;;;;;5009460;28;20037;-78
2024/02/25 06:11:54;;;;;;;7.45;5.68;;;4.30;99.90;;;;;;5010094;28;20041;-78
2024/02/25 06:14:20;;;;;;;8.70;5.50;;;4.30;99.90;;;;;;5011855;28;20048;-78
2024/02/25 06:16:46;;;;;;;8.65;5.28;;;4.30;99.90;;;;;;5009446;28;20033;-77
2024/02/25 06:19:12;;;;;;;8.35;5.13;;;4.30;99.90;;;;;;5010095;28;20192;-78
2024/02/25 06:21:43;;;;;;;8.32;5.05;;;4.40;99.90;;;;;;5010397;28;20028;-78
2024/02/25 06:24:08;;;;;;;8.60;5.40;;;4.40;99.90;;;;;;5011395;28;20029;-78
2024/02/25 06:26:34;;;;;;;8.35;5.10;;;4.40;99.90;;;;;;5009626;28;20605;-78
2024/02/25 06:28:59;;;;;;;7.30;4.57;;;4.30;99.90;;;;;;5009718;28;20041;-78
2024/02/25 06:31:29;;;;;;;8.75;5.65;;;4.30;99.90;;;;;;5011370;28;20560;-77
2024/02/25 06:33:55;;;;;;;6.72;4.43;;;4.40;99.90;;;;;;5011786;28;20132;-78
2024/02/25 06:36:21;;;;;;;8.38;5.28;;;4.40;99.90;;;;;;5010844;28;20034;-78
2024/02/25 06:38:47;;;;;;;7.65;5.13;;;4.50;99.90;;;;;;5012900;28;20094;-77
2024/02/25 06:41:23;;;;;;;7.70;4.75;;;4.40;99.90;;;;;;5013130;28;20041;-77
2024/02/25 06:43:49;;;;;;;7.63;4.70;;;4.50;99.90;;;;;;5012962;28;20499;-77
2024/02/25 06:46:15;;;;;;;6.57;4.22;;;4.60;99.90;;;;;;5013323;28;20037;-77
2024/02/25 06:48:41;;;;;;;5.97;3.80;;;4.70;99.90;;;;;;5012086;28;20043;-77
2024/02/25 06:51:07;;;;;;;6.95;4.22;;;4.70;99.90;;;;;;5010156;28;20052;-77
2024/02/25 06:53:33;;;;;;;7.88;4.32;;;4.70;99.90;;;;;;5011094;28;20029;-77
2024/02/25 06:56:03;;;;;;;12.63;4.63;;;4.70;99.90;;;;;;5009889;28;20034;-77
2024/02/25 06:58:28;;;;;;;9.55;4.35;;;4.70;99.90;;;;;;5008369;28;20041;-79
2024/02/25 07:00:54;;;;;;;6.90;4.40;;;4.70;99.90;;;;;;5009446;28;20029;-79
2024/02/25 07:03:20;;;;;;;6.03;4.18;;;4.70;99.90;;;;;;5009349;28;20041;-79
2024/02/25 07:05:45;;;;;;;5.85;3.83;;;4.70;99.90;;;;;;5007340;28;20030;-78
2024/02/25 07:08:11;;;;;;;5.68;3.88;;;4.80;99.90;;;;;;5011140;28;20041;-77
2024/02/25 07:10:37;;;;;;;7.40;4.32;;;4.90;99.90;;;;;;5009125;28;20577;-77
2024/02/25 07:13:03;;;;;;;7.28;4.25;;;4.90;99.90;;;;;;5010569;28;20124;-77
2024/02/25 07:15:29;;;;;;;8.80;4.65;;;5.00;99.90;;;;;;5010527;28;20037;-77
2024/02/25 07:17:55;;;;;;;7.80;4.30;;;5.00;99.90;;;;;;5010394;28;20418;-78
2024/02/25 07:20:20;;;;;;;6.25;4.25;;;5.00;99.90;;;;;;5013028;28;20771;-78
2024/02/25 07:22:47;;;;;;;5.97;4.13;;;5.00;99.90;;;;;;5011672;28;20383;-78
2024/02/25 07:25:13;;;;;;;8.25;4.60;;;4.80;99.90;;;;;;5010776;28;20043;-77
2024/02/25 07:27:40;;;;;;;8.52;3.70;;;4.90;99.90;;;;;;5013179;28;20040;-77
2024/02/25 07:30:06;;;;;;;7.68;4.47;;;5.00;99.90;;;;;;5012865;28;20057;-77
2024/02/25 07:32:32;;;;;;;8.02;4.53;;;5.00;99.90;;;;;;5011895;28;20041;-78
2024/02/25 07:34:59;;;;;;;7.68;4.68;;;4.90;99.90;;;;;;5010268;28;20057;-77
2024/02/25 07:37:26;;;;;;;7.03;4.40;;;4.90;99.90;;;;;;5008464;28;20033;-77
2024/02/25 07:39:52;;;;;;;7.05;4.60;;;5.00;99.90;;;;;;5006674;28;20432;-77
2024/02/25 07:42:17;;;;;;;8.25;4.78;;;5.00;99.90;;;;;;5008604;28;20037;-79
2024/02/25 07:44:43;;;;;;;5.30;3.90;;;5.10;99.90;;;;;;5010141;28;20033;-77
2024/02/25 07:47:09;;;;;;;6.07;4.10;;;5.00;99.90;;;;;;5005567;28;20029;-80
2024/02/25 07:49:35;;;;;;;6.30;4.88;;;5.00;99.90;;;;;;5007647;28;20555;-79
2024/02/25 07:52:00;;;;;;;6.47;4.57;;;5.00;99.90;;;;;;5010632;28;20819;-79
2024/02/25 07:54:26;;;;;;;7.07;4.72;;;5.00;99.90;;;;;;5011774;28;20034;-79
2024/02/25 07:56:52;;;;;;;9.07;4.95;;;5.10;99.90;;;;;;5011424;28;20103;-79
2024/02/25 07:59:17;;;;;;;7.93;5.47;;;5.10;99.90;;;;;;5012840;28;20124;-79
2024/02/25 08:01:43;;;;;;;7.60;4.90;;;5.10;99.90;;;;;;5010985;28;20094;-79
2024/02/25 08:04:09;;;;;;;6.40;4.40;;;5.20;99.90;;;;;;5010632;28;20118;-80
2024/02/25 08:06:35;;;;;;;9.23;4.88;;;5.20;99.90;;;;;;5007293;28;20065;-79
2024/02/25 08:09:01;;;;;;;7.82;5.10;;;5.20;99.90;;;;;;5007900;28;20783;-79
2024/02/25 08:11:26;;;;;;;9.98;5.07;;;5.30;99.90;;;;;;5010356;28;20518;-79
2024/02/25 08:13:52;;;;;;;9.00;5.85;;;5.50;99.90;;;;;;5007658;28;20128;-79
2024/02/25 08:16:19;;;;;;;8.32;5.65;;;5.50;99.90;;;;;;5007929;28;20124;-79
2024/02/25 08:18:47;;;;;;;9.00;5.07;;;5.50;99.90;;;;;;5011075;28;20041;-79
2024/02/25 08:21:13;;;;;;;8.70;5.57;;;5.50;99.90;;;;;;5009856;28;20133;-79
2024/02/25 08:23:40;;;;;;;8.50;5.20;;;5.60;99.90;;;;;;5011952;28;20060;-79
2024/02/25 08:26:07;;;;;;;7.03;4.80;;;5.80;99.90;;;;;;5011313;28;20562;-79
2024/02/25 08:28:34;;;;;;;7.30;5.00;;;5.80;99.90;;;;;;5010796;28;20030;-79
2024/02/25 08:30:59;;;;;;;7.07;4.88;;;5.90;99.90;;;;;;5009895;28;20053;-79
2024/02/25 08:33:25;;;;;;;5.60;3.65;;;5.90;99.90;;;;;;5012530;28;20033;-79
2024/02/25 08:35:51;;;;;;;6.95;4.35;;;6.00;99.90;;;;;;5008380;28;20037;-79
2024/02/25 08:38:16;;;;;;;7.45;5.22;;;6.10;99.90;;;;;;5008819;28;20395;-80
2024/02/25 08:40:42;;;;;;;7.68;4.88;;;6.20;99.90;;;;;;5009519;28;20112;-78
2024/02/25 08:43:08;;;;;;;9.15;4.68;;;6.20;99.90;;;;;;5010042;28;20064;-77
2024/02/25 08:45:33;;;;;;;6.40;4.43;;;6.40;99.90;;;;;;5011501;28;20045;-77
2024/02/25 08:48:00;;;;;;;4.82;3.72;;;6.50;99.90;;;;;;5010678;28;20029;-78
2024/02/25 08:50:27;;;;;;;6.13;3.88;;;6.50;99.90;;;;;;5018272;28;20068;-78
2024/02/25 08:52:53;;;;;;;5.28;3.72;;;6.70;99.90;;;;;;5012882;28;20041;-77
2024/02/25 08:55:19;;;;;;;4.68;3.05;;;6.80;99.90;;;;;;5008202;28;20104;-78
2024/02/25 08:57:45;;;;;;;4.88;3.13;;;6.70;99.90;;;;;;5002745;28;20039;-80
2024/02/25 09:00:11;;;;;;;4.75;2.85;;;6.90;99.90;;;;;;5006967;28;20069;-78
2024/02/25 09:02:38;;;;;;;6.18;3.80;;;7.00;99.90;;;;;;5007135;28;20120;-78
2024/02/25 09:05:07;;;;;;;6.60;3.42;;;7.00;99.90;;;;;;5008054;28;20041;-79
2024/02/25 09:07:35;;;;;;;8.82;5.05;;;7.20;99.90;;;;;;5009062;28;20026;-75
2024/02/25 09:10:02;;;;;;;7.00;4.88;;;7.20;99.90;;;;;;5008384;28;20650;-77
2024/02/25 09:12:27;;;;;;;8.77;5.07;;;7.10;99.90;;;;;;5008617;28;20116;-77
2024/02/25 09:14:53;;;;;;;9.93;5.65;;;7.00;99.90;;;;;;5006429;28;20144;-77
2024/02/25 09:17:19;;;;;;;10.40;6.53;;;7.10;99.90;;;;;;5006325;28;20044;-76
2024/02/25 09:19:44;;;;;;;8.82;6.00;;;7.10;99.90;;;;;;5006827;28;20038;-75
2024/02/25 09:22:10;;;;;;;9.55;5.85;;;6.80;99.90;;;;;;5007584;28;20191;-76
2024/02/25 09:24:36;;;;;;;8.80;6.18;;;6.70;99.90;;;;;;5006824;28;20390;-76
2024/02/25 09:27:03;;;;;;;7.38;5.10;;;6.90;99.90;;;;;;5006411;28;20592;-78
2024/02/25 09:29:28;;;;;;;7.82;5.47;;;7.00;99.90;;;;;;5008900;28;20178;-78
2024/02/25 09:31:55;;;;;;;10.02;6.22;;;7.10;99.90;;;;;;5009965;28;20744;-77
2024/02/25 09:34:21;;;;;;;9.48;6.43;;;7.00;99.90;;;;;;5011667;28;20687;-78
2024/02/25 09:36:47;;;;;;;19.80;14.65;;;7.00;99.90;;;;;;5010732;28;20034;-76
2024/02/25 09:39:14;;;;;;;10.77;7.10;;;7.00;99.90;;;;;;5011793;28;20424;-76
2024/02/25 09:41:42;;;;;;;9.77;5.72;;;6.90;99.90;;;;;;5015835;28;20196;-75
2024/02/25 09:44:39;;;;;;;9.15;5.32;;;6.90;99.90;;;;;;5016606;28;20200;-77
2024/02/25 09:47:07;;;;;;;6.88;4.50;;;7.10;99.90;;;;;;5011238;28;20677;-76
2024/02/25 09:49:35;;;;;;;6.80;4.50;;;7.30;99.90;;;;;;5016455;28;20044;-76
2024/02/25 09:52:02;;;;;;;6.90;4.28;;;7.30;99.90;;;;;;5016248;28;20041;-78
2024/02/25 09:54:28;;;;;;;8.10;4.68;;;7.40;99.90;;;;;;5015674;28;20476;-76
2024/02/25 09:56:54;;;;;;;7.57;5.18;;;7.30;99.90;;;;;;5014773;28;20092;-76
2024/02/25 09:59:20;;;;;;;7.13;4.75;;;7.20;99.90;;;;;;5015311;28;20030;-76
2024/02/25 10:01:47;;;;;;;7.43;4.60;;;7.20;99.90;;;;;;5016045;28;20463;-76
2024/02/25 10:04:14;;;;;;;7.47;5.28;;;7.50;99.90;;;;;;5015308;28;20059;-76
2024/02/25 10:06:42;;;;;;;8.30;4.85;;;7.60;99.90;;;;;;5015809;28;20472;-76
2024/02/25 10:09:12;;;;;;;8.48;5.25;;;7.60;99.90;;;;;;5015652;28;20061;-76
2024/02/25 10:11:40;;;;;;;10.02;5.25;;;7.50;99.90;;;;;;5015825;28;20069;-76
2024/02/25 10:14:06;;;;;;;7.60;5.28;;;7.50;99.90;;;;;;5016896;28;20403;-76
2024/02/25 10:16:33;;;;;;;7.75;6.07;;;7.80;99.90;;;;;;5015584;28;20052;-76
2024/02/25 10:18:59;;;;;;;8.15;4.72;;;7.80;99.90;;;;;;5015325;28;20041;-78
2024/02/25 10:21:25;;;;;;;8.45;4.93;;;7.80;99.90;;;;;;5015938;28;20029;-76
2024/02/25 10:23:54;;;;;;;10.82;5.72;;;7.80;99.90;;;;;;5014867;28;20025;-76
2024/02/25 10:26:24;;;;;;;7.60;5.63;;;7.70;99.90;;;;;;5013922;28;20774;-76
2024/02/25 10:29:06;;;;;;;7.93;4.47;;;7.70;99.90;;;;;;5010859;28;20491;-76
2024/02/25 10:31:33;;;;;;;7.32;5.20;;;7.90;99.90;;;;;;5008264;28;20455;-74
2024/02/25 10:33:59;;;;;;;21.60;19.40;;;7.80;99.90;;;;;;5010493;28;20038;-76
2024/02/25 10:36:29;;;;;;;15.27;10.55;;;7.70;99.90;;;;;;5009811;28;20210;-76
2024/02/25 10:38:56;;;;;;;16.38;10.52;;;7.90;99.90;;;;;;5011408;28;20025;-76
2024/02/25 10:41:23;;;;;;;11.25;7.10;;;8.00;99.90;;;;;;5009986;28;20101;-76
2024/02/25 10:43:59;;;;;;;10.07;6.88;;;8.00;99.90;;;;;;5010476;28;20037;-76
2024/02/25 10:46:40;;;;;;;8.75;5.47;;;8.00;99.90;;;;;;5010003;28;20850;-76
2024/02/25 10:49:06;;;;;;;23.10;13.75;;;8.10;99.90;;;;;;5007890;28;20175;-76
2024/02/25 10:51:35;;;;;;;11.77;7.28;;;8.20;99.90;;;;;;5010358;28;20042;-76
2024/02/25 10:54:02;;;;;;;25.10;14.82;;;8.20;99.90;;;;;;5009875;28;20060;-76
2024/02/25 10:56:29;;;;;;;18.08;10.73;;;8.00;99.90;;;;;;5007621;28;20048;-76
2024/02/25 10:58:56;;;;;;;16.15;8.82;;;8.00;99.90;;;;;;5008602;28;20091;-76
2024/02/25 11:01:24;;;;;;;10.50;6.20;;;8.00;99.90;;;;;;5009551;28;20040;-76
2024/02/25 11:03:50;;;;;;;7.45;4.75;;;8.10;99.90;;;;;;5009264;28;20038;-77
2024/02/25 11:06:35;;;;;;;6.57;4.65;;;8.00;99.90;;;;;;5010022;28;20033;-76
2024/02/25 11:09:14;;;;;;;;;;;7.90;99.90;;;;;;5010518;28;20057;-76
2024/02/25 11:11:42;;;;;;;6.65;4.80;;;8.00;99.90;;;;;;5011123;28;20694;-76
2024/02/25 11:14:18;;;;;;;8.88;5.45;;;8.00;99.90;;;;;;5009266;28;20590;-76
2024/02/25 11:16:49;;;;;;;10.65;5.57;;;8.20;99.90;;;;;;5009211;28;20033;-76
2024/02/25 11:19:22;;;;;;;6.90;4.10;;;8.40;99.90;;;;;;5008224;28;20037;-76
2024/02/25 11:21:57;;;;;;;8.65;3.65;;;8.40;99.90;;;;;;5009894;28;20099;-77
2024/02/25 11:24:49;;;;;;;7.90;4.72;;;8.60;99.90;;;;;;5009689;28;20037;-76
2024/02/25 11:27:17;;;;;;;7.93;4.13;;;8.50;99.90;;;;;;5009997;28;20029;-76
2024/02/25 11:29:44;;;;;;;6.50;4.32;;;8.40;99.90;;;;;;5008963;28;20041;-76
2024/02/25 11:32:09;;;;;;;8.65;4.20;;;8.40;99.90;;;;;;5010106;28;20025;-78
2024/02/25 11:34:37;;;;;;;6.85;4.35;;;8.70;99.90;;;;;;5008921;28;20567;-78
2024/02/25 11:37:07;;;;;;;6.28;3.75;;;9.00;99.90;;;;;;5009151;28;20037;-78
2024/02/25 11:39:34;;;;;;;6.65;5.38;;;9.00;99.90;;;;;;5009168;28;20037;-78
2024/02/25 11:42:03;;;;;;;8.18;6.35;;;9.30;99.90;;;;;;5007882;28;20056;-77
2024/02/25 11:44:31;;;;;;;9.10;4.55;;;9.50;99.90;;;;;;5007960;28;20082;-77
2024/02/25 11:47:07;;;;;;;9.55;7.00;;;9.70;99.90;;;;;;5009684;28;20562;-78
2024/02/25 11:49:34;;;;;;;67.82;40.33;;;9.70;99.90;;;;;;5009366;28;20033;-77
2024/02/25 11:52:01;;;;;;;91.45;57.75;;;9.90;99.90;;;;;;5005144;28;20537;-78
2024/02/25 11:54:31;;;;;;;44.47;31.08;;;10.10;99.90;;;;;;5007918;28;20041;-78
2024/02/25 11:56:57;;;;;;;22.80;16.48;;;10.10;99.90;;;;;;5009643;28;20050;-77
2024/02/25 11:59:23;;;;;;;15.10;12.98;;;9.90;99.90;;;;;;5008017;28;20028;-78
2024/02/25 12:01:51;;;;;;;7.55;5.22;;;10.60;99.90;;;;;;5007870;28;20179;-79
2024/02/25 12:04:19;;;;;;;7.05;4.68;;;10.60;99.90;;;;;;5006781;28;20033;-78
2024/02/25 12:06:45;;;;;;;5.43;3.58;;;10.10;99.90;;;;;;5008294;28;20034;-78
2024/02/25 12:09:15;;;;;;;5.15;3.30;;;9.80;99.90;;;;;;5009704;28;20068;-78
2024/02/25 12:11:42;;;;;;;6.38;3.20;;;9.70;99.90;;;;;;5009126;28;20046;-78
2024/02/25 12:14:18;;;;;;;5.35;2.95;;;9.60;99.90;;;;;;5007214;28;20812;-79
2024/02/25 12:16:45;;;;;;;6.65;3.95;;;9.50;99.90;;;;;;5006211;28;20033;-79
2024/02/25 12:19:12;;;;;;;16.15;12.90;;;9.70;99.90;;;;;;5008174;28;20064;-78
2024/02/25 12:21:40;;;;;;;7.55;6.03;;;9.60;99.90;;;;;;5006563;28;20034;-78
2024/02/25 12:24:06;;;;;;;6.57;4.38;;;9.70;99.90;;;;;;5007420;28;20041;-78
2024/02/25 12:27:07;;;;;;;5.43;3.70;;;9.70;99.90;;;;;;5004841;28;20033;-81
2024/02/25 12:29:39;;;;;;;6.80;3.92;;;9.90;99.90;;;;;;4958908;28;20038;-78
2024/02/25 12:32:09;;;;;;;5.88;2.97;;;9.70;99.90;;;;;;4993558;28;20148;-79
2024/02/25 12:34:35;;;;;;;4.82;2.10;;;9.70;99.90;;;;;;5006821;28;20642;-79
2024/02/25 12:37:01;;;;;;;5.93;3.00;;;9.80;99.90;;;;;;5007339;28;20091;-78
2024/02/25 12:39:27;;;;;;;3.90;2.20;;;10.10;99.90;;;;;;5008022;28;20048;-78
2024/02/25 12:42:01;;;;;;;4.85;3.10;;;10.30;99.90;;;;;;5007073;28;20937;-78
2024/02/25 12:44:27;;;;;;;5.32;2.88;;;10.40;99.90;;;;;;5007454;28;20025;-78
2024/02/25 12:46:53;;;;;;;6.65;3.50;;;10.20;99.90;;;;;;5006709;28;20034;-79
2024/02/25 12:49:19;;;;;;;4.45;2.63;;;10.20;99.90;;;;;;5006310;28;20049;-79
2024/02/25 12:51:45;;;;;;;4.05;2.13;;;10.40;99.90;;;;;;5010838;28;20049;-77
2024/02/25 12:54:10;;;;;;;5.00;2.58;;;10.30;99.90;;;;;;5006057;28;20039;-77